Time;durP1;ratioP1;P1;durP2;ratioP2;P2;SDS_P1;SDS_P2;PMS_P1;PMS_P2;Temp;Humidity;BMP_temperature;BMP_pressure;BME280_temperature;BME280_humidity;BME280_pressure;Samples;Min_cycle;Max_cycle;Signal;HPM_P1;HPM_P2
2022/10/01 00:00:59;;;;;;;5.67;5.27;;;14.10;98.60;;;;;;5015032;28;20422;-66
2022/10/01 00:03:26;;;;;;;7.03;6.43;;;14.10;98.50;;;;;;5015619;28;20450;-66
2022/10/01 00:05:59;;;;;;;5.97;5.57;;;14.00;98.40;;;;;;5013062;28;20466;-65
2022/10/01 00:08:26;;;;;;;5.77;5.30;;;14.00;99.00;;;;;;5015428;28;20421;-66
2022/10/01 00:10:52;;;;;;;7.33;6.00;;;13.90;99.00;;;;;;5015399;28;20516;-65
2022/10/01 00:13:19;;;;;;;5.83;5.33;;;14.00;99.00;;;;;;5014068;28;20881;-66
2022/10/01 00:15:45;;;;;;;6.10;5.50;;;13.90;99.00;;;;;;5015067;28;20615;-65
2022/10/01 00:18:10;;;;;;;6.70;6.20;;;13.90;98.90;;;;;;5014449;28;20413;-65
2022/10/01 00:20:42;;;;;;;6.10;5.60;;;14.00;99.20;;;;;;5014752;28;20432;-66
2022/10/01 00:23:12;;;;;;;6.90;6.30;;;13.90;99.00;;;;;;5014635;28;20188;-65
2022/10/01 00:25:38;;;;;;;6.27;5.80;;;13.90;98.90;;;;;;5014583;28;20430;-65
2022/10/01 00:28:04;;;;;;;6.63;6.00;;;14.00;99.10;;;;;;5014003;28;20849;-66
2022/10/01 00:30:30;;;;;;;6.00;5.60;;;14.00;99.60;;;;;;5015139;28;20489;-65
2022/10/01 00:32:56;;;;;;;6.40;5.90;;;14.10;98.80;;;;;;5015035;28;20217;-66
2022/10/01 00:35:22;;;;;;;6.80;6.20;;;14.00;98.50;;;;;;5013689;28;20180;-66
2022/10/01 00:37:49;;;;;;;6.90;6.30;;;14.00;98.60;;;;;;5014963;28;20178;-65
2022/10/01 00:40:16;;;;;;;7.90;6.13;;;13.90;98.70;;;;;;5014300;28;20427;-66
2022/10/01 00:42:42;;;;;;;6.00;5.60;;;13.80;99.10;;;;;;5014136;28;20562;-66
2022/10/01 00:45:11;;;;;;;7.30;5.80;;;13.90;98.90;;;;;;4994672;28;20417;-66
2022/10/01 00:47:49;;;;;;;5.57;5.17;;;13.90;99.00;;;;;;4995381;28;20931;-65
2022/10/01 00:50:31;;;;;;;6.93;6.33;;;13.90;98.90;;;;;;4996223;28;20466;-66
2022/10/01 00:53:03;;;;;;;5.80;5.40;;;13.80;98.90;;;;;;5014631;28;20450;-66
2022/10/01 00:55:36;;;;;;;5.27;4.90;;;13.80;99.50;;;;;;5014872;28;20442;-66
2022/10/01 00:58:03;;;;;;;6.17;5.20;;;13.80;99.40;;;;;;5013935;28;20414;-66
2022/10/01 01:00:30;;;;;;;6.23;5.13;;;13.70;99.40;;;;;;5014556;28;20409;-66
2022/10/01 01:02:56;;;;;;;5.80;5.30;;;13.80;99.20;;;;;;4996650;28;20935;-65
2022/10/01 01:05:23;;;;;;;5.60;5.17;;;13.80;99.10;;;;;;5013021;28;20556;-66
2022/10/01 01:07:52;;;;;;;5.47;4.97;;;13.80;98.80;;;;;;4996754;28;20542;-65
2022/10/01 01:10:36;;;;;;;4.83;4.53;;;13.80;99.50;;;;;;5012997;28;20432;-66
2022/10/01 01:13:17;;;;;;;6.23;5.73;;;13.90;99.30;;;;;;5012326;28;20480;-74
2022/10/01 01:15:47;;;;;;;5.60;5.30;;;13.90;99.00;;;;;;5013504;28;20425;-66
2022/10/01 01:18:22;;;;;;;5.40;5.03;;;13.90;99.30;;;;;;4994706;28;20443;-66
2022/10/01 01:21:02;;;;;;;6.10;5.60;;;13.90;99.40;;;;;;5013862;28;20392;-66
2022/10/01 01:23:54;;;;;;;7.00;5.30;;;13.90;99.90;;;;;;5013437;28;20405;-65
2022/10/01 01:26:32;;;;;;;5.43;4.97;;;13.90;99.90;;;;;;5012961;28;20479;-65
2022/10/01 01:29:05;;;;;;;5.53;4.80;;;13.90;99.90;;;;;;5012978;28;20433;-66
2022/10/01 01:31:37;;;;;;;7.33;5.37;;;13.90;99.90;;;;;;5013695;28;20443;-66
2022/10/01 01:34:11;;;;;;;5.77;5.37;;;13.90;99.90;;;;;;5013123;28;20932;-74
2022/10/01 01:36:41;;;;;;;5.63;5.13;;;13.80;99.90;;;;;;5011672;28;20464;-65
2022/10/01 01:39:10;;;;;;;9.17;5.77;;;13.80;99.90;;;;;;5011407;28;20514;-66
2022/10/01 01:41:48;;;;;;;6.93;6.40;;;13.60;99.90;;;;;;5013600;28;20426;-66
2022/10/01 01:44:20;;;;;;;7.10;6.60;;;13.40;99.90;;;;;;5012266;28;20962;-66
2022/10/01 01:46:48;;;;;;;7.07;6.53;;;13.50;99.90;;;;;;5013426;28;20891;-66
2022/10/01 01:49:19;;;;;;;7.33;6.80;;;13.50;99.90;;;;;;5012428;28;20421;-66
2022/10/01 01:52:06;;;;;;;7.30;6.67;;;13.40;99.90;;;;;;5013210;28;20405;-66
2022/10/01 01:54:34;;;;;;;7.60;7.10;;;13.30;99.90;;;;;;5012849;28;20957;-66
2022/10/01 01:57:01;;;;;;;7.13;6.63;;;13.40;99.90;;;;;;5011485;28;20470;-66
2022/10/01 01:59:27;;;;;;;7.70;7.00;;;13.30;99.90;;;;;;5012216;28;20409;-65
2022/10/01 02:01:53;;;;;;;7.13;6.70;;;13.00;99.90;;;;;;5012991;28;20409;-66
2022/10/01 02:04:31;;;;;;;7.67;7.10;;;13.00;99.90;;;;;;5011874;28;20926;-66
2022/10/01 02:07:05;;;;;;;7.40;6.90;;;13.00;99.90;;;;;;5013251;28;20167;-66
2022/10/01 02:09:46;;;;;;;7.07;6.67;;;13.00;99.90;;;;;;5012429;28;20414;-66
2022/10/01 02:12:25;;;;;;;6.47;6.07;;;12.90;99.90;;;;;;5011958;28;20746;-66
2022/10/01 02:15:06;;;;;;;7.50;7.00;;;13.00;99.90;;;;;;5012847;28;20453;-65
2022/10/01 02:17:49;;;;;;;7.60;7.03;;;12.70;99.90;;;;;;5028378;28;20437;-66
2022/10/01 02:20:31;;;;;;;7.43;6.90;;;12.50;99.90;;;;;;5031813;28;20412;-66
2022/10/01 02:23:14;;;;;;;6.93;6.43;;;12.50;99.90;;;;;;5032570;28;20500;-66
2022/10/01 02:25:47;;;;;;;7.00;6.50;;;12.40;99.90;;;;;;5015038;28;20425;-66
2022/10/01 02:28:17;;;;;;;7.23;6.63;;;12.40;99.90;;;;;;5030553;28;20481;-65
2022/10/01 02:30:43;;;;;;;6.33;5.73;;;12.50;99.90;;;;;;5014830;28;20429;-65
2022/10/01 02:33:13;;;;;;;6.07;5.67;;;12.40;99.90;;;;;;5031479;28;20445;-67
2022/10/01 02:35:42;;;;;;;5.93;5.53;;;12.40;99.90;;;;;;5031280;28;20756;-65
2022/10/01 02:38:09;;;;;;;6.70;6.20;;;12.30;99.90;;;;;;5031916;28;20417;-74
2022/10/01 02:40:41;;;;;;;5.87;5.47;;;12.40;99.90;;;;;;5032260;28;20401;-65
2022/10/01 02:43:13;;;;;;;7.33;6.80;;;12.50;99.90;;;;;;5031731;28;20419;-74
2022/10/01 02:45:42;;;;;;;6.33;5.93;;;12.60;99.90;;;;;;5032194;28;20502;-65
2022/10/01 02:48:10;;;;;;;6.50;5.90;;;12.60;99.90;;;;;;5030744;28;20779;-66
2022/10/01 02:50:53;;;;;;;5.63;5.33;;;12.70;99.90;;;;;;5032597;28;20401;-66
2022/10/01 02:53:30;;;;;;;6.60;6.10;;;12.70;99.90;;;;;;5032144;28;20480;-65
2022/10/01 02:55:58;;;;;;;6.87;6.30;;;12.70;99.90;;;;;;5032396;28;20399;-67
2022/10/01 02:58:24;;;;;;;5.70;5.30;;;12.50;99.90;;;;;;5031926;28;20409;-67
2022/10/01 03:00:50;;;;;;;6.00;5.70;;;12.50;99.90;;;;;;5031516;28;20928;-67
2022/10/01 03:03:15;;;;;;;5.87;5.37;;;12.40;99.90;;;;;;5031852;28;20418;-67
2022/10/01 03:05:41;;;;;;;7.00;6.60;;;12.40;99.90;;;;;;5031089;28;20458;-67
2022/10/01 03:08:07;;;;;;;5.70;5.30;;;12.40;99.90;;;;;;5031285;28;20176;-75
2022/10/01 03:10:35;;;;;;;6.27;5.77;;;12.40;99.90;;;;;;5031229;28;20236;-67
2022/10/01 03:13:00;;;;;;;7.00;6.13;;;12.40;99.90;;;;;;5031839;28;20467;-67
2022/10/01 03:15:27;;;;;;;5.90;5.50;;;12.50;99.90;;;;;;5031134;28;20421;-67
2022/10/01 03:17:53;;;;;;;6.80;6.30;;;12.50;99.90;;;;;;5031918;28;20276;-67
2022/10/01 03:20:21;;;;;;;6.00;5.60;;;12.30;99.90;;;;;;5031090;28;20408;-67
2022/10/01 03:22:47;;;;;;;6.53;6.07;;;12.20;99.90;;;;;;5032170;28;20412;-67
2022/10/01 03:25:13;;;;;;;5.93;5.53;;;12.30;99.90;;;;;;5030952;28;20414;-68
2022/10/01 03:27:39;;;;;;;6.37;5.80;;;12.10;99.90;;;;;;5030980;28;20174;-67
2022/10/01 03:30:05;;;;;;;6.30;5.80;;;12.20;99.90;;;;;;5032164;28;20577;-67
2022/10/01 03:32:31;;;;;;;5.73;5.30;;;12.20;99.90;;;;;;5030267;28;20170;-68
2022/10/01 03:34:57;;;;;;;5.67;5.33;;;12.20;99.90;;;;;;5031883;28;20408;-67
2022/10/01 03:37:23;;;;;;;6.20;5.77;;;12.30;99.90;;;;;;5030077;28;20473;-67
2022/10/01 03:39:49;;;;;;;5.20;4.90;;;12.20;99.90;;;;;;5034176;28;20927;-67
2022/10/01 03:42:15;;;;;;;5.50;5.20;;;12.20;99.90;;;;;;5034968;28;20191;-67
2022/10/01 03:44:41;;;;;;;5.80;5.30;;;12.10;99.90;;;;;;5035368;28;20248;-66
2022/10/01 03:47:08;;;;;;;5.80;5.40;;;12.20;99.90;;;;;;5033304;28;20936;-67
2022/10/01 03:49:34;;;;;;;5.90;5.50;;;12.20;99.90;;;;;;5034287;28;20448;-66
2022/10/01 03:52:01;;;;;;;5.90;5.50;;;12.20;99.90;;;;;;5034568;28;20975;-66
2022/10/01 03:54:29;;;;;;;5.87;5.53;;;12.30;99.90;;;;;;5034231;28;20545;-67
2022/10/01 03:56:55;;;;;;;5.80;5.50;;;12.30;99.90;;;;;;5035118;28;20409;-67
2022/10/01 03:59:20;;;;;;;5.80;5.50;;;12.40;99.90;;;;;;5034305;28;20504;-67
2022/10/01 04:01:46;;;;;;;5.60;5.30;;;12.30;99.90;;;;;;5032033;28;20518;-66
2022/10/01 04:04:12;;;;;;;6.17;5.77;;;12.30;99.90;;;;;;5033330;28;20185;-75
2022/10/01 04:06:37;;;;;;;5.90;5.50;;;12.30;99.90;;;;;;5015568;28;20228;-67
2022/10/01 04:09:04;;;;;;;5.63;5.33;;;12.30;99.90;;;;;;5015105;28;20257;-67
2022/10/01 04:11:29;;;;;;;6.07;5.67;;;12.30;99.90;;;;;;5013486;28;20186;-67
2022/10/01 04:13:56;;;;;;;5.30;5.00;;;12.20;99.90;;;;;;5014990;28;20446;-67
2022/10/01 04:16:23;;;;;;;5.60;5.20;;;12.20;99.90;;;;;;5013617;28;20188;-67
2022/10/01 04:18:49;;;;;;;5.50;5.20;;;12.20;99.90;;;;;;5014196;28;20440;-67
2022/10/01 04:21:15;;;;;;;5.00;4.70;;;12.20;99.90;;;;;;5014014;28;20417;-77
2022/10/01 04:23:41;;;;;;;4.80;4.50;;;12.30;99.90;;;;;;5012934;28;20433;-68
2022/10/01 04:26:07;;;;;;;5.30;5.00;;;12.20;99.90;;;;;;5014684;28;20179;-68
2022/10/01 04:28:32;;;;;;;5.00;4.80;;;12.20;99.90;;;;;;5014669;28;20276;-67
2022/10/01 04:33:43;;;;;;;4.53;4.23;;;12.20;99.90;;;;;;5014951;28;20196;-67
2022/10/01 04:36:09;;;;;;;5.13;4.83;;;12.30;99.90;;;;;;5015025;28;20472;-67
2022/10/01 04:38:34;;;;;;;4.20;4.10;;;12.30;99.90;;;;;;5014445;28;20179;-66
2022/10/01 04:41:00;;;;;;;4.13;3.97;;;12.20;99.90;;;;;;5013862;28;20183;-66
2022/10/01 04:43:26;;;;;;;4.47;4.27;;;12.30;99.90;;;;;;5013478;28;20265;-67
2022/10/01 04:45:52;;;;;;;4.50;4.30;;;12.40;99.90;;;;;;5013934;28;20634;-66
2022/10/01 04:48:17;;;;;;;4.60;4.40;;;12.30;99.90;;;;;;5014209;28;20180;-67
2022/10/01 04:50:43;;;;;;;4.67;4.40;;;12.30;99.90;;;;;;5013553;28;20449;-66
2022/10/01 04:53:09;;;;;;;4.90;4.70;;;12.20;99.90;;;;;;5013698;28;20652;-68
2022/10/01 04:55:35;;;;;;;4.87;4.50;;;12.30;99.90;;;;;;5013990;28;20476;-67
2022/10/01 04:58:01;;;;;;;4.60;4.30;;;12.50;99.90;;;;;;5014322;28;20240;-67
2022/10/01 05:00:27;;;;;;;4.00;3.80;;;12.60;99.90;;;;;;5012907;28;20172;-67
2022/10/01 05:02:54;;;;;;;4.17;3.97;;;12.60;99.90;;;;;;4996398;28;20536;-67
2022/10/01 05:05:22;;;;;;;4.10;3.90;;;12.70;99.90;;;;;;5018573;28;20460;-67
2022/10/01 05:07:48;;;;;;;4.50;4.30;;;12.60;99.90;;;;;;5013097;28;20434;-67
2022/10/01 05:10:17;;;;;;;3.90;3.70;;;12.60;99.90;;;;;;5012975;28;20441;-75
2022/10/01 05:12:45;;;;;;;4.43;4.23;;;12.70;99.90;;;;;;5012833;28;20467;-65
2022/10/01 05:15:11;;;;;;;4.20;4.00;;;12.70;99.90;;;;;;5019442;28;20429;-66
2022/10/01 05:17:37;;;;;;;3.87;3.67;;;12.70;99.90;;;;;;5032585;28;20910;-66
2022/10/01 05:20:05;;;;;;;4.10;3.90;;;12.70;99.90;;;;;;5033559;28;20420;-66
2022/10/01 05:22:31;;;;;;;4.50;4.30;;;12.80;99.90;;;;;;5029007;28;20204;-67
2022/10/01 05:24:58;;;;;;;4.30;4.10;;;12.70;99.90;;;;;;5029366;28;21048;-68
2022/10/01 05:27:25;;;;;;;4.30;4.10;;;12.70;99.90;;;;;;5032546;28;20227;-66
2022/10/01 05:29:52;;;;;;;4.17;3.97;;;12.70;99.90;;;;;;5033535;28;20424;-66
2022/10/01 05:32:18;;;;;;;3.50;3.40;;;12.70;99.90;;;;;;5031763;28;20419;-73
2022/10/01 05:34:43;;;;;;;4.40;4.20;;;12.70;99.90;;;;;;5033249;28;20522;-66
2022/10/01 05:37:10;;;;;;;4.07;3.90;;;12.70;99.90;;;;;;5033400;28;20997;-64
2022/10/01 05:39:36;;;;;;;4.40;4.20;;;12.80;99.90;;;;;;5032331;28;20649;-65
2022/10/01 05:42:03;;;;;;;4.10;3.90;;;12.80;99.90;;;;;;5032150;28;20416;-64
2022/10/01 05:44:30;;;;;;;3.77;3.67;;;12.80;99.90;;;;;;5029720;28;20781;-65
2022/10/01 05:46:56;;;;;;;4.20;4.10;;;12.80;99.90;;;;;;5030672;28;20536;-64
2022/10/01 05:49:24;;;;;;;4.20;4.10;;;12.80;99.90;;;;;;5030974;28;20466;-64
2022/10/01 05:51:49;;;;;;;3.70;3.60;;;12.80;99.90;;;;;;5033121;28;20589;-64
2022/10/01 05:54:18;;;;;;;4.43;4.23;;;12.80;99.90;;;;;;5032592;28;20577;-64
2022/10/01 05:56:44;;;;;;;4.07;3.87;;;12.80;99.90;;;;;;5031568;28;20205;-64
2022/10/01 05:59:10;;;;;;;3.67;3.57;;;12.90;99.90;;;;;;5032788;28;20418;-65
2022/10/01 06:01:36;;;;;;;3.67;3.57;;;12.90;99.90;;;;;;5021919;28;20463;-62
2022/10/01 06:04:02;;;;;;;4.60;4.30;;;12.90;99.90;;;;;;5012931;28;20541;-62
2022/10/01 06:06:28;;;;;;;3.80;3.70;;;13.00;99.90;;;;;;5025519;28;20447;-62
2022/10/01 06:08:54;;;;;;;3.70;3.60;;;13.00;99.90;;;;;;5013053;28;20432;-62
2022/10/01 06:11:23;;;;;;;36.50;25.03;;;13.10;99.90;;;;;;5022566;28;20891;-68
2022/10/01 06:13:49;;;;;;;50.97;32.10;;;13.10;99.90;;;;;;5031870;28;20241;-62
2022/10/01 06:16:15;;;;;;;4.23;4.03;;;13.10;99.90;;;;;;5030215;28;20508;-61
2022/10/01 06:18:41;;;;;;;3.90;3.80;;;13.10;99.90;;;;;;5030070;28;20439;-62
2022/10/01 06:21:08;;;;;;;3.93;3.83;;;13.10;99.90;;;;;;5030212;28;20189;-62
2022/10/01 06:23:34;;;;;;;3.53;3.43;;;13.20;99.90;;;;;;5031898;28;20476;-62
2022/10/01 06:26:02;;;;;;;4.00;3.90;;;13.10;99.90;;;;;;5014731;28;20444;-62
2022/10/01 06:28:28;;;;;;;3.97;3.87;;;13.20;99.90;;;;;;5031542;28;20499;-62
2022/10/01 06:30:53;;;;;;;3.90;3.70;;;13.20;99.90;;;;;;5030892;28;20524;-63
2022/10/01 06:33:19;;;;;;;3.70;3.60;;;13.20;99.90;;;;;;5030927;28;20961;-68
2022/10/01 06:35:48;;;;;;;3.00;2.90;;;13.20;99.90;;;;;;5031757;28;20181;-63
2022/10/01 06:38:15;;;;;;;3.30;3.20;;;13.20;99.90;;;;;;5014522;28;20404;-63
2022/10/01 06:40:43;;;;;;;3.70;3.60;;;13.30;99.90;;;;;;5031629;28;20800;-63
2022/10/01 06:43:09;;;;;;;3.73;3.63;;;13.30;99.90;;;;;;5032401;28;20423;-63
2022/10/01 06:45:37;;;;;;;3.77;3.67;;;13.30;99.90;;;;;;5031485;28;20405;-63
2022/10/01 06:48:04;;;;;;;3.37;3.27;;;13.40;99.90;;;;;;5032435;28;20412;-63
2022/10/01 06:50:30;;;;;;;3.07;2.97;;;13.30;99.90;;;;;;5031903;28;20412;-63
2022/10/01 06:52:57;;;;;;;3.40;3.20;;;13.30;99.90;;;;;;5032455;28;20994;-63
2022/10/01 06:55:31;;;;;;;2.80;2.80;;;13.30;99.90;;;;;;5031699;28;20799;-63
2022/10/01 06:58:05;;;;;;;2.83;2.83;;;13.30;99.90;;;;;;5032212;28;20775;-63
2022/10/01 07:00:34;;;;;;;3.63;3.53;;;13.30;99.90;;;;;;5031965;28;20449;-63
2022/10/01 07:03:00;;;;;;;2.53;2.53;;;13.30;99.90;;;;;;5032562;28;20413;-63
2022/10/01 07:05:26;;;;;;;3.33;3.23;;;13.30;99.90;;;;;;5021961;28;20461;-63
2022/10/01 07:07:52;;;;;;;3.73;3.53;;;13.40;99.90;;;;;;5012867;28;20798;-63
2022/10/01 07:10:22;;;;;;;3.50;3.40;;;13.30;99.90;;;;;;5012604;28;20415;-64
2022/10/01 07:12:48;;;;;;;3.43;3.33;;;13.40;99.90;;;;;;4995166;28;20420;-63
2022/10/01 07:15:16;;;;;;;3.47;3.30;;;13.40;99.90;;;;;;5015704;28;20419;-63
2022/10/01 07:17:50;;;;;;;3.30;3.20;;;13.30;99.90;;;;;;5016299;28;20430;-63
2022/10/01 07:20:18;;;;;;;3.10;2.90;;;13.20;99.90;;;;;;5016551;28;20409;-63
2022/10/01 07:22:45;;;;;;;4.07;3.97;;;13.20;99.90;;;;;;5015771;28;20416;-63
2022/10/01 07:25:12;;;;;;;3.63;3.53;;;13.30;99.90;;;;;;5016409;28;20409;-63
2022/10/01 07:27:38;;;;;;;3.37;3.27;;;13.30;99.90;;;;;;5015420;28;20474;-63
2022/10/01 07:30:06;;;;;;;3.57;3.47;;;13.30;99.90;;;;;;4998566;28;20939;-63
2022/10/01 07:32:34;;;;;;;3.60;3.50;;;13.30;99.90;;;;;;5015027;28;20507;-63
2022/10/01 07:35:01;;;;;;;3.60;3.30;;;13.40;99.90;;;;;;5015717;28;20494;-63
2022/10/01 07:37:26;;;;;;;3.77;3.67;;;13.50;99.90;;;;;;5015397;28;20424;-63
2022/10/01 07:39:52;;;;;;;4.33;4.17;;;13.50;99.90;;;;;;5016090;28;20538;-63
2022/10/01 07:42:20;;;;;;;3.50;3.40;;;13.60;99.90;;;;;;5016045;28;20185;-63
2022/10/01 07:44:46;;;;;;;3.50;3.40;;;13.80;99.90;;;;;;5015345;28;20448;-63
2022/10/01 07:47:11;;;;;;;4.03;3.93;;;13.70;99.90;;;;;;5016061;28;20875;-63
2022/10/01 07:49:37;;;;;;;3.43;3.33;;;13.80;99.90;;;;;;4997493;28;20184;-63
2022/10/01 07:52:04;;;;;;;3.73;3.53;;;13.90;99.90;;;;;;5015899;28;20292;-63
2022/10/01 07:54:30;;;;;;;3.80;3.70;;;13.90;99.90;;;;;;5014835;28;20760;-64
2022/10/01 07:56:56;;;;;;;4.10;3.90;;;13.90;99.90;;;;;;5015679;28;20444;-63
2022/10/01 07:59:26;;;;;;;4.20;4.00;;;13.90;99.90;;;;;;5015655;28;20181;-63
2022/10/01 08:01:52;;;;;;;4.10;4.00;;;14.00;99.90;;;;;;5015616;28;20266;-63
2022/10/01 08:07:07;;;;;;;5.10;4.90;;;14.10;99.90;;;;;;5035106;28;20772;-63
2022/10/01 08:09:33;;;;;;;3.80;3.70;;;14.00;99.90;;;;;;5034594;28;20882;-63
2022/10/01 08:11:59;;;;;;;4.97;4.77;;;13.90;99.90;;;;;;5035244;28;20421;-63
2022/10/01 08:14:25;;;;;;;4.67;4.47;;;14.00;99.90;;;;;;5034729;28;20485;-69
2022/10/01 08:16:54;;;;;;;5.40;5.20;;;14.00;99.90;;;;;;5033658;28;20186;-63
2022/10/01 08:19:20;;;;;;;5.10;4.80;;;14.00;99.90;;;;;;5033940;28;20479;-63
2022/10/01 08:21:46;;;;;;;4.70;4.50;;;14.20;99.90;;;;;;5034234;28;20820;-64
2022/10/01 08:24:11;;;;;;;4.50;4.30;;;14.10;99.90;;;;;;5035103;28;20260;-63
2022/10/01 08:26:37;;;;;;;4.60;4.40;;;14.20;99.90;;;;;;5033195;28;20716;-63
2022/10/01 08:29:03;;;;;;;5.73;5.43;;;14.20;99.90;;;;;;5034896;28;20178;-63
2022/10/01 08:31:29;;;;;;;5.10;4.90;;;14.40;99.90;;;;;;5034355;28;20243;-63
2022/10/01 08:33:55;;;;;;;4.80;4.60;;;14.50;99.90;;;;;;5034720;28;20209;-63
2022/10/01 08:36:21;;;;;;;4.87;4.50;;;14.50;99.90;;;;;;5034501;28;20630;-63
2022/10/01 08:38:47;;;;;;;4.20;4.00;;;14.60;99.90;;;;;;5034134;28;20413;-63
2022/10/01 08:41:46;;;;;;;5.03;4.77;;;14.70;99.90;;;;;;5034704;28;20173;-63
2022/10/01 08:44:22;;;;;;;5.00;4.70;;;14.70;99.90;;;;;;5003940;28;20438;-63
2022/10/01 08:46:50;;;;;;;4.63;4.43;;;14.90;99.90;;;;;;5034222;28;20427;-63
2022/10/01 08:49:37;;;;;;;4.70;4.50;;;14.90;99.90;;;;;;5016940;28;20515;-63
2022/10/01 08:52:21;;;;;;;4.37;4.20;;;15.00;99.90;;;;;;5034598;28;20751;-63
2022/10/01 08:55:01;;;;;;;4.60;4.40;;;15.10;99.90;;;;;;5033848;28;21215;-63
2022/10/01 08:57:31;;;;;;;5.00;4.77;;;15.20;99.90;;;;;;5034444;28;20489;-63
2022/10/01 08:59:59;;;;;;;4.63;4.40;;;15.10;99.90;;;;;;5034680;28;20409;-63
2022/10/01 09:02:29;;;;;;;4.87;4.63;;;15.20;99.90;;;;;;5034288;28;20413;-63
2022/10/01 09:04:58;;;;;;;4.87;4.67;;;15.20;99.90;;;;;;5029844;28;20493;-63
2022/10/01 09:07:31;;;;;;;5.20;5.00;;;15.30;99.90;;;;;;5014173;28;20487;-63
2022/10/01 09:10:29;;;;;;;5.40;5.20;;;15.30;99.90;;;;;;5014453;28;20408;-63
2022/10/01 09:13:18;;;;;;;8.70;7.97;;;15.40;99.90;;;;;;4986311;28;20523;-63
2022/10/01 09:15:52;;;;;;;7.67;7.17;;;15.50;99.90;;;;;;5013540;28;20466;-64
2022/10/01 09:18:30;;;;;;;6.07;5.77;;;15.60;99.90;;;;;;5014138;28;20830;-63
2022/10/01 09:20:57;;;;;;;6.80;6.40;;;15.60;99.90;;;;;;5014317;28;20897;-63
2022/10/01 09:23:34;;;;;;;6.23;5.93;;;15.60;99.90;;;;;;5014116;28;20408;-63
2022/10/01 09:26:01;;;;;;;7.07;6.50;;;15.60;99.90;;;;;;5014249;28;20408;-63
2022/10/01 09:28:34;;;;;;;6.70;6.20;;;15.70;99.90;;;;;;5014039;28;20441;-63
2022/10/01 09:31:12;;;;;;;7.23;5.80;;;15.80;99.90;;;;;;5014020;28;20473;-63
2022/10/01 09:34:02;;;;;;;7.20;6.80;;;15.70;99.90;;;;;;5013267;28;20464;-63
2022/10/01 09:37:02;;;;;;;7.20;6.80;;;15.70;99.90;;;;;;5013643;28;20408;-63
2022/10/01 09:39:38;;;;;;;6.73;6.23;;;15.70;99.90;;;;;;4990793;28;20493;-63
2022/10/01 09:42:05;;;;;;;6.20;5.80;;;15.70;99.90;;;;;;5013903;28;20899;-63
2022/10/01 09:44:31;;;;;;;6.10;5.80;;;15.60;99.90;;;;;;5013243;28;20423;-64
2022/10/01 09:46:58;;;;;;;6.60;6.10;;;15.80;99.90;;;;;;5013585;28;20478;-63
2022/10/01 09:49:32;;;;;;;6.80;6.40;;;15.80;99.90;;;;;;5013775;28;20424;-63
2022/10/01 09:52:25;;;;;;;6.60;6.20;;;15.80;99.90;;;;;;5013366;28;20496;-63
2022/10/01 09:55:18;;;;;;;6.70;6.30;;;15.90;99.90;;;;;;5012720;28;20557;-63
2022/10/01 09:57:49;;;;;;;6.67;6.27;;;15.90;99.90;;;;;;5012774;28;20415;-63
2022/10/01 10:00:23;;;;;;;7.67;7.17;;;15.90;99.90;;;;;;5013217;28;20911;-63
2022/10/01 10:02:52;;;;;;;7.50;6.93;;;15.90;99.90;;;;;;5012901;28;20404;-63
2022/10/01 10:05:23;;;;;;;6.77;6.27;;;15.80;99.90;;;;;;5013320;28;20459;-63
2022/10/01 10:07:56;;;;;;;7.37;6.87;;;15.80;99.90;;;;;;5012786;28;20483;-63
2022/10/01 10:10:27;;;;;;;7.73;7.33;;;15.80;99.90;;;;;;5013468;28;20416;-63
2022/10/01 10:13:00;;;;;;;7.00;6.60;;;15.70;99.90;;;;;;5012606;28;20408;-63
2022/10/01 10:15:30;;;;;;;7.10;6.70;;;15.80;99.90;;;;;;5013176;28;20481;-63
2022/10/01 10:18:11;;;;;;;7.93;7.13;;;15.80;99.90;;;;;;5012615;28;20441;-63
2022/10/01 10:20:40;;;;;;;8.17;7.60;;;15.80;99.90;;;;;;4995171;28;20486;-63
2022/10/01 10:23:18;;;;;;;8.77;7.87;;;15.80;99.90;;;;;;5013076;28;20401;-63
2022/10/01 10:25:54;;;;;;;7.70;7.20;;;15.80;99.90;;;;;;5012470;28;20875;-63
2022/10/01 10:28:22;;;;;;;7.07;6.57;;;15.80;99.90;;;;;;4933382;29;20781;-63
2022/10/01 10:30:51;;;;;;;7.60;7.03;;;15.70;99.90;;;;;;4932364;29;20439;-63
2022/10/01 10:33:21;;;;;;;6.60;6.10;;;15.70;99.90;;;;;;4933056;29;20874;-63
2022/10/01 10:35:59;;;;;;;6.60;6.20;;;15.60;99.90;;;;;;4932570;29;20425;-63
2022/10/01 10:38:28;;;;;;;6.77;6.27;;;15.60;99.90;;;;;;4933204;29;20465;-64
2022/10/01 10:40:54;;;;;;;5.50;5.00;;;15.50;99.90;;;;;;4932500;29;20424;-63
2022/10/01 10:43:26;;;;;;;6.63;6.23;;;15.60;99.90;;;;;;4933478;29;20423;-63
2022/10/01 10:45:56;;;;;;;5.40;5.10;;;15.50;99.90;;;;;;4932502;29;20184;-63
2022/10/01 10:48:27;;;;;;;5.10;4.80;;;15.50;99.90;;;;;;4932435;29;20785;-63
2022/10/01 10:50:59;;;;;;;5.80;5.50;;;15.60;99.90;;;;;;4932466;29;20418;-63
2022/10/01 10:53:27;;;;;;;6.60;6.27;;;15.60;99.90;;;;;;4933182;29;20467;-63
2022/10/01 10:55:54;;;;;;;6.83;6.43;;;15.80;99.90;;;;;;4932667;29;20521;-63
2022/10/01 10:58:24;;;;;;;7.10;6.70;;;16.10;99.90;;;;;;4940630;28;20420;-63
2022/10/01 11:00:52;;;;;;;6.90;6.50;;;16.60;99.90;;;;;;5011838;28;20501;-63
2022/10/01 11:03:23;;;;;;;6.90;6.50;;;17.10;99.90;;;;;;5012397;28;20421;-63
2022/10/01 11:05:50;;;;;;;5.77;5.43;;;17.40;99.90;;;;;;5012010;28;20510;-64
2022/10/01 11:08:23;;;;;;;6.43;5.83;;;17.70;99.90;;;;;;5012347;28;20437;-63
2022/10/01 11:11:26;;;;;;;5.50;5.20;;;18.00;99.90;;;;;;5012129;28;20485;-64
2022/10/01 11:14:17;;;;;;;4.20;4.00;;;18.30;99.90;;;;;;5011964;28;20445;-63
2022/10/01 11:17:02;;;;;;;4.60;4.20;;;18.60;99.90;;;;;;5012125;28;20525;-63
2022/10/01 11:20:02;;;;;;;3.73;3.53;;;18.70;99.90;;;;;;5012618;28;20916;-63
2022/10/01 11:22:46;;;;;;;3.90;3.70;;;18.80;99.90;;;;;;5012642;28;20398;-63
2022/10/01 11:25:40;;;;;;;3.90;3.70;;;18.90;99.90;;;;;;5012630;28;20434;-63
2022/10/01 11:28:26;;;;;;;3.60;3.40;;;19.00;99.90;;;;;;5012630;28;20406;-63
2022/10/01 11:31:21;;;;;;;4.00;3.70;;;19.10;99.90;;;;;;4980523;28;20517;-64
2022/10/01 11:34:24;;;;;;;4.20;4.00;;;19.20;99.90;;;;;;4998368;28;20565;-64
2022/10/01 11:37:09;;;;;;;4.17;3.87;;;19.20;99.90;;;;;;5011759;28;20429;-63
2022/10/01 11:39:39;;;;;;;4.00;3.60;;;19.30;99.90;;;;;;4994550;28;20418;-63
2022/10/01 11:42:20;;;;;;;4.00;3.70;;;19.30;99.90;;;;;;5012316;28;20477;-63
2022/10/01 11:45:10;;;;;;;3.60;3.30;;;19.30;99.90;;;;;;5011471;28;20485;-63
2022/10/01 11:47:43;;;;;;;4.20;3.90;;;19.60;99.90;;;;;;5011796;28;20445;-63
2022/10/01 11:50:24;;;;;;;4.27;3.87;;;19.70;99.90;;;;;;5012290;28;20390;-63
2022/10/01 11:53:06;;;;;;;4.10;3.80;;;19.80;99.90;;;;;;5011626;28;20502;-63
2022/10/01 11:59:05;;;;;;;4.70;4.27;;;19.80;99.90;;;;;;5011899;28;20948;-63
2022/10/01 12:01:44;;;;;;;5.33;3.97;;;19.90;99.90;;;;;;5015489;28;20402;-63
2022/10/01 12:04:31;;;;;;;4.60;3.83;;;19.90;99.90;;;;;;5015875;28;20398;-63
2022/10/01 12:07:05;;;;;;;3.70;3.40;;;19.80;99.90;;;;;;5015057;28;20422;-63
2022/10/01 12:09:35;;;;;;;3.73;3.43;;;19.80;99.90;;;;;;5015671;28;20493;-62
2022/10/01 12:12:14;;;;;;;4.20;3.83;;;19.70;99.90;;;;;;5014988;28;20540;-63
2022/10/01 12:14:51;;;;;;;4.43;4.03;;;19.70;99.90;;;;;;5014595;28;21019;-64
2022/10/01 12:17:45;;;;;;;6.50;3.80;;;19.60;99.90;;;;;;5013961;28;20422;-64
2022/10/01 12:20:27;;;;;;;4.60;3.80;;;19.30;99.90;;;;;;5015777;28;20501;-63
2022/10/01 12:22:55;;;;;;;6.00;4.00;;;19.20;99.90;;;;;;5014459;28;20758;-63
2022/10/01 12:25:30;;;;;;;5.30;4.80;;;19.00;99.90;;;;;;5015543;28;20870;-63
2022/10/01 12:28:08;;;;;;;5.40;4.90;;;18.70;99.90;;;;;;5014713;28;20760;-63
2022/10/01 12:30:53;;;;;;;6.03;5.63;;;18.60;99.90;;;;;;5015270;28;20516;-63
2022/10/01 12:33:53;;;;;;;5.43;5.03;;;18.40;99.90;;;;;;5015183;28;20810;-63
2022/10/01 12:36:52;;;;;;;4.63;4.30;;;18.30;99.90;;;;;;5015033;28;20796;-63
2022/10/01 12:39:20;;;;;;;5.60;5.20;;;18.10;99.90;;;;;;5015040;28;20461;-63
2022/10/01 12:41:49;;;;;;;5.60;5.20;;;18.00;99.90;;;;;;5014121;28;20410;-63
2022/10/01 12:44:25;;;;;;;5.33;4.63;;;17.90;99.90;;;;;;5014886;28;20422;-63
2022/10/01 12:47:13;;;;;;;5.50;5.10;;;17.80;99.90;;;;;;5014384;28;20460;-64
2022/10/01 12:49:51;;;;;;;6.33;5.73;;;17.70;99.90;;;;;;5014860;28;20410;-63
2022/10/01 12:52:54;;;;;;;5.63;5.13;;;17.70;99.90;;;;;;5014884;28;20398;-63
2022/10/01 12:55:33;;;;;;;6.30;5.73;;;17.60;99.90;;;;;;5014405;28;20417;-63
2022/10/01 12:58:20;;;;;;;8.23;5.00;;;17.60;99.90;;;;;;5012828;28;20426;-63
2022/10/01 13:01:07;;;;;;;6.37;5.97;;;17.70;99.90;;;;;;5013953;28;20430;-63
2022/10/01 13:03:57;;;;;;;5.73;5.23;;;17.70;99.90;;;;;;5014639;28;20489;-63
2022/10/01 13:06:55;;;;;;;8.10;5.90;;;17.80;99.90;;;;;;5014177;28;20528;-63
2022/10/01 13:09:45;;;;;;;5.30;4.90;;;17.80;99.90;;;;;;4992275;28;20437;-63
2022/10/01 13:12:16;;;;;;;5.10;4.70;;;17.70;99.90;;;;;;5013765;28;20456;-63
2022/10/01 13:14:44;;;;;;;5.57;4.87;;;17.70;99.90;;;;;;5013998;28;20516;-68
2022/10/01 13:17:30;;;;;;;4.97;4.60;;;17.60;99.90;;;;;;5013848;28;20425;-63